sensor_id;sensor_type;location;lat;lon;timestamp;temperature;humidity
680;DHT22;322;48.846;9.230;2022-09-09T00:00:54;14.90;99.90
680;DHT22;322;48.846;9.230;2022-09-09T00:03:25;14.90;99.90
680;DHT22;322;48.846;9.230;2022-09-09T00:06:01;15.00;99.90
680;DHT22;322;48.846;9.230;2022-09-09T00:08:40;15.00;99.90
680;DHT22;322;48.846;9.230;2022-09-09T00:11:12;15.00;99.90
680;DHT22;322;48.846;9.230;2022-09-09T00:13:46;15.10;99.90
680;DHT22;322;48.846;9.230;2022-09-09T00:16:17;15.10;99.90
680;DHT22;322;48.846;9.230;2022-09-09T00:18:51;15.10;99.90
680;DHT22;322;48.846;9.230;2022-09-09T00:21:24;15.20;99.90
680;DHT22;322;48.846;9.230;2022-09-09T00:23:54;15.10;99.90
680;DHT22;322;48.846;9.230;2022-09-09T00:26:26;15.20;99.90
680;DHT22;322;48.846;9.230;2022-09-09T00:29:03;15.20;99.90
680;DHT22;322;48.846;9.230;2022-09-09T00:31:31;15.20;99.90
680;DHT22;322;48.846;9.230;2022-09-09T00:34:03;15.20;99.90
680;DHT22;322;48.846;9.230;2022-09-09T00:36:32;15.20;99.90
680;DHT22;322;48.846;9.230;2022-09-09T00:39:01;15.20;99.90
680;DHT22;322;48.846;9.230;2022-09-09T00:41:36;15.30;99.90
680;DHT22;322;48.846;9.230;2022-09-09T00:44:20;15.40;99.90
680;DHT22;322;48.846;9.230;2022-09-09T00:46:59;15.50;99.90
680;DHT22;322;48.846;9.230;2022-09-09T00:49:40;15.50;99.90
680;DHT22;322;48.846;9.230;2022-09-09T00:52:23;15.60;99.90
680;DHT22;322;48.846;9.230;2022-09-09T00:55:01;15.70;99.90
680;DHT22;322;48.846;9.230;2022-09-09T00:57:31;15.80;99.90
680;DHT22;322;48.846;9.230;2022-09-09T01:00:16;15.80;99.90
680;DHT22;322;48.846;9.230;2022-09-09T01:05:41;15.80;99.90
680;DHT22;322;48.846;9.230;2022-09-09T01:08:25;15.90;99.90
680;DHT22;322;48.846;9.230;2022-09-09T01:10:54;15.90;99.90
680;DHT22;322;48.846;9.230;2022-09-09T01:13:24;16.00;99.90
680;DHT22;322;48.846;9.230;2022-09-09T01:15:53;16.00;99.90
680;DHT22;322;48.846;9.230;2022-09-09T01:18:23;16.00;99.90
680;DHT22;322;48.846;9.230;2022-09-09T01:20:59;16.00;99.90
680;DHT22;322;48.846;9.230;2022-09-09T01:23:39;16.00;99.90
680;DHT22;322;48.846;9.230;2022-09-09T01:26:23;15.90;99.90
680;DHT22;322;48.846;9.230;2022-09-09T01:28:52;15.90;99.90
680;DHT22;322;48.846;9.230;2022-09-09T01:31:21;15.80;99.90
680;DHT22;322;48.846;9.230;2022-09-09T01:33:49;15.80;99.90
680;DHT22;322;48.846;9.230;2022-09-09T01:36:22;15.90;99.90
680;DHT22;322;48.846;9.230;2022-09-09T01:38:51;15.90;99.90
680;DHT22;322;48.846;9.230;2022-09-09T01:41:19;15.90;99.90
680;DHT22;322;48.846;9.230;2022-09-09T01:43:47;15.90;99.90
680;DHT22;322;48.846;9.230;2022-09-09T01:46:14;15.90;99.90
680;DHT22;322;48.846;9.230;2022-09-09T01:48:43;16.00;99.90
680;DHT22;322;48.846;9.230;2022-09-09T01:51:10;16.00;99.90
680;DHT22;322;48.846;9.230;2022-09-09T01:54:04;16.00;99.90
680;DHT22;322;48.846;9.230;2022-09-09T01:56:50;16.00;99.90
680;DHT22;322;48.846;9.230;2022-09-09T01:59:32;16.00;99.90
680;DHT22;322;48.846;9.230;2022-09-09T02:02:18;16.00;99.90
680;DHT22;322;48.846;9.230;2022-09-09T02:04:48;16.10;99.90
680;DHT22;322;48.846;9.230;2022-09-09T02:07:28;16.00;99.90
680;DHT22;322;48.846;9.230;2022-09-09T02:10:00;16.00;99.90
680;DHT22;322;48.846;9.230;2022-09-09T02:12:28;15.90;99.90
680;DHT22;322;48.846;9.230;2022-09-09T02:15:02;15.80;99.90
680;DHT22;322;48.846;9.230;2022-09-09T02:17:33;15.70;99.90
680;DHT22;322;48.846;9.230;2022-09-09T02:20:07;15.60;99.90
680;DHT22;322;48.846;9.230;2022-09-09T02:22:36;15.50;99.90
680;DHT22;322;48.846;9.230;2022-09-09T02:25:07;15.40;99.90
680;DHT22;322;48.846;9.230;2022-09-09T02:27:46;15.20;99.90
680;DHT22;322;48.846;9.230;2022-09-09T02:30:15;15.10;99.90
680;DHT22;322;48.846;9.230;2022-09-09T02:32:43;15.00;99.90
680;DHT22;322;48.846;9.230;2022-09-09T02:35:13;14.90;99.90
680;DHT22;322;48.846;9.230;2022-09-09T02:37:42;14.90;99.90
680;DHT22;322;48.846;9.230;2022-09-09T02:40:11;14.90;99.90
680;DHT22;322;48.846;9.230;2022-09-09T02:42:39;14.80;99.90
680;DHT22;322;48.846;9.230;2022-09-09T02:45:07;14.80;99.90
680;DHT22;322;48.846;9.230;2022-09-09T02:47:39;14.70;99.90
680;DHT22;322;48.846;9.230;2022-09-09T02:50:13;14.60;99.90
680;DHT22;322;48.846;9.230;2022-09-09T02:52:51;14.60;99.90
680;DHT22;322;48.846;9.230;2022-09-09T02:55:32;14.50;99.90
680;DHT22;322;48.846;9.230;2022-09-09T02:58:02;14.50;99.90
680;DHT22;322;48.846;9.230;2022-09-09T03:00:32;14.40;99.90
680;DHT22;322;48.846;9.230;2022-09-09T03:03:00;14.20;99.90
680;DHT22;322;48.846;9.230;2022-09-09T03:05:26;14.20;99.90
680;DHT22;322;48.846;9.230;2022-09-09T03:07:53;14.00;99.90
680;DHT22;322;48.846;9.230;2022-09-09T03:10:20;14.00;99.90
680;DHT22;322;48.846;9.230;2022-09-09T03:12:47;14.00;99.90
680;DHT22;322;48.846;9.230;2022-09-09T03:15:14;14.00;99.90
680;DHT22;322;48.846;9.230;2022-09-09T03:17:41;13.90;99.90
680;DHT22;322;48.846;9.230;2022-09-09T03:20:09;13.90;99.90
680;DHT22;322;48.846;9.230;2022-09-09T03:22:36;13.90;99.90
680;DHT22;322;48.846;9.230;2022-09-09T03:25:03;13.90;99.90
680;DHT22;322;48.846;9.230;2022-09-09T03:27:31;13.90;99.90
680;DHT22;322;48.846;9.230;2022-09-09T03:29:58;14.00;99.90
680;DHT22;322;48.846;9.230;2022-09-09T03:32:25;14.00;99.90
680;DHT22;322;48.846;9.230;2022-09-09T03:34:52;14.10;99.90
680;DHT22;322;48.846;9.230;2022-09-09T03:37:20;14.10;99.90
680;DHT22;322;48.846;9.230;2022-09-09T03:39:48;14.10;99.90
680;DHT22;322;48.846;9.230;2022-09-09T03:42:15;14.20;99.90
680;DHT22;322;48.846;9.230;2022-09-09T03:44:44;14.30;99.90
680;DHT22;322;48.846;9.230;2022-09-09T03:47:16;14.40;99.90
680;DHT22;322;48.846;9.230;2022-09-09T03:49:43;14.40;99.90
680;DHT22;322;48.846;9.230;2022-09-09T03:52:10;14.50;99.90
680;DHT22;322;48.846;9.230;2022-09-09T03:54:38;14.40;99.90
680;DHT22;322;48.846;9.230;2022-09-09T03:57:08;14.30;99.90
680;DHT22;322;48.846;9.230;2022-09-09T03:59:35;14.30;99.90
680;DHT22;322;48.846;9.230;2022-09-09T04:02:03;14.30;99.90
680;DHT22;322;48.846;9.230;2022-09-09T04:04:29;14.30;99.90
680;DHT22;322;48.846;9.230;2022-09-09T04:06:56;14.30;99.90
680;DHT22;322;48.846;9.230;2022-09-09T04:09:23;14.40;99.90
680;DHT22;322;48.846;9.230;2022-09-09T04:11:51;14.50;99.90
680;DHT22;322;48.846;9.230;2022-09-09T04:14:18;14.40;99.90
680;DHT22;322;48.846;9.230;2022-09-09T04:16:45;14.50;99.90
680;DHT22;322;48.846;9.230;2022-09-09T04:19:13;14.60;99.90
680;DHT22;322;48.846;9.230;2022-09-09T04:21:40;14.50;99.90
680;DHT22;322;48.846;9.230;2022-09-09T04:24:07;14.60;99.90
680;DHT22;322;48.846;9.230;2022-09-09T04:26:35;14.60;99.90
680;DHT22;322;48.846;9.230;2022-09-09T04:29:04;14.60;99.90
680;DHT22;322;48.846;9.230;2022-09-09T04:31:32;14.70;99.90
680;DHT22;322;48.846;9.230;2022-09-09T04:33:59;14.80;99.90
680;DHT22;322;48.846;9.230;2022-09-09T04:36:30;14.80;99.90
680;DHT22;322;48.846;9.230;2022-09-09T04:38:57;14.80;99.90
680;DHT22;322;48.846;9.230;2022-09-09T04:41:24;14.80;99.90
680;DHT22;322;48.846;9.230;2022-09-09T04:43:51;14.80;99.90
680;DHT22;322;48.846;9.230;2022-09-09T04:46:20;14.90;99.90
680;DHT22;322;48.846;9.230;2022-09-09T04:48:48;15.00;99.90
680;DHT22;322;48.846;9.230;2022-09-09T04:51:16;15.00;99.90
680;DHT22;322;48.846;9.230;2022-09-09T04:53:42;15.10;99.90
680;DHT22;322;48.846;9.230;2022-09-09T04:56:10;15.10;99.90
680;DHT22;322;48.846;9.230;2022-09-09T04:58:38;15.20;99.90
680;DHT22;322;48.846;9.230;2022-09-09T05:01:06;15.10;99.90
680;DHT22;322;48.846;9.230;2022-09-09T05:03:35;15.10;99.90
680;DHT22;322;48.846;9.230;2022-09-09T05:06:06;15.00;99.90
680;DHT22;322;48.846;9.230;2022-09-09T05:08:33;15.00;99.90
680;DHT22;322;48.846;9.230;2022-09-09T05:11:00;15.00;99.90
680;DHT22;322;48.846;9.230;2022-09-09T05:13:27;14.90;99.90
680;DHT22;322;48.846;9.230;2022-09-09T05:15:54;14.80;99.90
680;DHT22;322;48.846;9.230;2022-09-09T05:18:21;14.80;99.90
680;DHT22;322;48.846;9.230;2022-09-09T05:20:50;14.80;99.90
680;DHT22;322;48.846;9.230;2022-09-09T05:23:17;14.70;99.90
680;DHT22;322;48.846;9.230;2022-09-09T05:25:54;14.90;99.90
680;DHT22;322;48.846;9.230;2022-09-09T05:28:23;14.90;99.90
680;DHT22;322;48.846;9.230;2022-09-09T05:30:58;15.00;99.90
680;DHT22;322;48.846;9.230;2022-09-09T05:33:26;15.10;99.90
680;DHT22;322;48.846;9.230;2022-09-09T05:35:58;15.20;99.90
680;DHT22;322;48.846;9.230;2022-09-09T05:38:25;15.20;99.90
680;DHT22;322;48.846;9.230;2022-09-09T05:40:52;15.30;99.90
680;DHT22;322;48.846;9.230;2022-09-09T05:43:19;15.40;99.90
680;DHT22;322;48.846;9.230;2022-09-09T05:45:46;15.50;99.90
680;DHT22;322;48.846;9.230;2022-09-09T05:48:13;15.50;99.90
680;DHT22;322;48.846;9.230;2022-09-09T05:50:41;15.70;99.90
680;DHT22;322;48.846;9.230;2022-09-09T05:53:09;15.80;99.90
680;DHT22;322;48.846;9.230;2022-09-09T05:55:36;15.90;99.90
680;DHT22;322;48.846;9.230;2022-09-09T05:58:03;16.00;99.90
680;DHT22;322;48.846;9.230;2022-09-09T06:00:30;16.00;99.90
680;DHT22;322;48.846;9.230;2022-09-09T06:02:57;16.00;99.90
680;DHT22;322;48.846;9.230;2022-09-09T06:05:24;16.10;99.90
680;DHT22;322;48.846;9.230;2022-09-09T06:07:53;16.30;99.90
680;DHT22;322;48.846;9.230;2022-09-09T06:10:21;16.40;99.90
680;DHT22;322;48.846;9.230;2022-09-09T06:12:48;16.60;99.90
680;DHT22;322;48.846;9.230;2022-09-09T06:15:15;16.60;99.90
680;DHT22;322;48.846;9.230;2022-09-09T06:17:42;16.70;99.90
680;DHT22;322;48.846;9.230;2022-09-09T06:20:10;16.90;99.90
680;DHT22;322;48.846;9.230;2022-09-09T06:22:39;17.00;99.90
680;DHT22;322;48.846;9.230;2022-09-09T06:25:07;17.20;99.90
680;DHT22;322;48.846;9.230;2022-09-09T06:27:36;17.30;99.90
680;DHT22;322;48.846;9.230;2022-09-09T06:30:03;17.50;99.90
680;DHT22;322;48.846;9.230;2022-09-09T06:32:30;17.60;99.90
680;DHT22;322;48.846;9.230;2022-09-09T06:35:00;17.70;99.90
680;DHT22;322;48.846;9.230;2022-09-09T06:37:27;17.80;99.90
680;DHT22;322;48.846;9.230;2022-09-09T06:39:54;17.90;99.90
680;DHT22;322;48.846;9.230;2022-09-09T06:42:21;18.00;99.90
680;DHT22;322;48.846;9.230;2022-09-09T06:44:49;18.10;99.90
680;DHT22;322;48.846;9.230;2022-09-09T06:47:17;18.10;99.90
680;DHT22;322;48.846;9.230;2022-09-09T06:49:44;18.00;99.90
680;DHT22;322;48.846;9.230;2022-09-09T06:52:11;18.10;99.90
680;DHT22;322;48.846;9.230;2022-09-09T06:54:38;18.30;99.90
680;DHT22;322;48.846;9.230;2022-09-09T06:57:05;18.40;99.90
680;DHT22;322;48.846;9.230;2022-09-09T06:59:33;18.50;99.90
680;DHT22;322;48.846;9.230;2022-09-09T07:02:01;18.70;99.90
680;DHT22;322;48.846;9.230;2022-09-09T07:04:27;18.90;99.90
680;DHT22;322;48.846;9.230;2022-09-09T07:06:54;19.00;99.90
680;DHT22;322;48.846;9.230;2022-09-09T07:09:21;19.10;99.90
680;DHT22;322;48.846;9.230;2022-09-09T07:11:51;19.20;99.90
680;DHT22;322;48.846;9.230;2022-09-09T07:14:18;19.40;99.90
680;DHT22;322;48.846;9.230;2022-09-09T07:16:46;19.50;99.90
680;DHT22;322;48.846;9.230;2022-09-09T07:19:14;19.60;99.90
680;DHT22;322;48.846;9.230;2022-09-09T07:21:41;19.70;99.90
680;DHT22;322;48.846;9.230;2022-09-09T07:24:08;19.70;99.90
680;DHT22;322;48.846;9.230;2022-09-09T07:26:37;19.80;99.90
680;DHT22;322;48.846;9.230;2022-09-09T07:29:04;19.90;99.90
680;DHT22;322;48.846;9.230;2022-09-09T07:31:32;20.00;99.90
680;DHT22;322;48.846;9.230;2022-09-09T07:34:00;20.10;99.90
680;DHT22;322;48.846;9.230;2022-09-09T07:36:30;20.00;99.90
680;DHT22;322;48.846;9.230;2022-09-09T07:38:59;20.00;99.90
680;DHT22;322;48.846;9.230;2022-09-09T07:41:28;20.00;99.90
680;DHT22;322;48.846;9.230;2022-09-09T07:43:56;20.20;99.90
680;DHT22;322;48.846;9.230;2022-09-09T07:46:25;20.10;99.90
680;DHT22;322;48.846;9.230;2022-09-09T07:48:54;20.20;99.90
680;DHT22;322;48.846;9.230;2022-09-09T07:51:24;20.50;99.90
680;DHT22;322;48.846;9.230;2022-09-09T07:53:54;20.80;99.90
680;DHT22;322;48.846;9.230;2022-09-09T07:56:23;21.00;99.90
680;DHT22;322;48.846;9.230;2022-09-09T07:58:51;20.80;99.90
680;DHT22;322;48.846;9.230;2022-09-09T08:01:20;20.40;99.90
680;DHT22;322;48.846;9.230;2022-09-09T08:03:53;20.10;99.90
680;DHT22;322;48.846;9.230;2022-09-09T08:06:20;19.90;99.90
680;DHT22;322;48.846;9.230;2022-09-09T08:08:49;19.80;99.90
680;DHT22;322;48.846;9.230;2022-09-09T08:11:18;19.90;99.90
680;DHT22;322;48.846;9.230;2022-09-09T08:13:45;20.10;99.90
680;DHT22;322;48.846;9.230;2022-09-09T08:16:14;20.30;99.90
680;DHT22;322;48.846;9.230;2022-09-09T08:18:42;20.60;99.90
680;DHT22;322;48.846;9.230;2022-09-09T08:21:11;20.70;99.90
680;DHT22;322;48.846;9.230;2022-09-09T08:23:39;20.90;99.90
680;DHT22;322;48.846;9.230;2022-09-09T08:26:09;21.10;99.90
680;DHT22;322;48.846;9.230;2022-09-09T08:28:37;21.20;99.90
680;DHT22;322;48.846;9.230;2022-09-09T08:31:10;21.20;99.90
680;DHT22;322;48.846;9.230;2022-09-09T08:33:37;21.10;99.90
680;DHT22;322;48.846;9.230;2022-09-09T08:36:05;21.20;99.90
680;DHT22;322;48.846;9.230;2022-09-09T08:38:32;21.40;99.90
680;DHT22;322;48.846;9.230;2022-09-09T08:41:09;21.70;99.90
680;DHT22;322;48.846;9.230;2022-09-09T08:43:41;22.30;99.90
680;DHT22;322;48.846;9.230;2022-09-09T08:46:14;22.70;99.90
680;DHT22;322;48.846;9.230;2022-09-09T08:48:52;22.80;99.90
680;DHT22;322;48.846;9.230;2022-09-09T08:51:20;22.70;99.90
680;DHT22;322;48.846;9.230;2022-09-09T08:53:49;22.70;99.90
680;DHT22;322;48.846;9.230;2022-09-09T08:56:18;22.90;99.90
680;DHT22;322;48.846;9.230;2022-09-09T08:58:50;22.80;99.90
680;DHT22;322;48.846;9.230;2022-09-09T09:01:35;22.80;99.90
680;DHT22;322;48.846;9.230;2022-09-09T09:04:21;23.00;99.90
680;DHT22;322;48.846;9.230;2022-09-09T09:07:01;22.80;99.90
680;DHT22;322;48.846;9.230;2022-09-09T09:09:35;22.60;99.90
680;DHT22;322;48.846;9.230;2022-09-09T09:12:15;22.50;99.90
680;DHT22;322;48.846;9.230;2022-09-09T09:14:44;22.80;99.90
680;DHT22;322;48.846;9.230;2022-09-09T09:17:14;23.20;99.90
680;DHT22;322;48.846;9.230;2022-09-09T09:19:43;23.70;99.90
680;DHT22;322;48.846;9.230;2022-09-09T09:22:18;24.00;99.90
680;DHT22;322;48.846;9.230;2022-09-09T09:24:51;24.20;99.80
680;DHT22;322;48.846;9.230;2022-09-09T09:27:32;24.30;98.10
680;DHT22;322;48.846;9.230;2022-09-09T09:30:05;24.20;99.10
680;DHT22;322;48.846;9.230;2022-09-09T09:32:42;23.30;99.90
680;DHT22;322;48.846;9.230;2022-09-09T09:35:12;21.90;99.90
680;DHT22;322;48.846;9.230;2022-09-09T09:37:41;21.30;99.90
680;DHT22;322;48.846;9.230;2022-09-09T09:40:10;21.20;99.90
680;DHT22;322;48.846;9.230;2022-09-09T09:42:38;21.10;99.90
680;DHT22;322;48.846;9.230;2022-09-09T09:45:18;21.20;99.90
680;DHT22;322;48.846;9.230;2022-09-09T09:47:58;21.20;99.90
680;DHT22;322;48.846;9.230;2022-09-09T09:50:25;21.00;99.90
680;DHT22;322;48.846;9.230;2022-09-09T09:52:55;20.90;99.90
680;DHT22;322;48.846;9.230;2022-09-09T09:55:23;20.80;99.90
680;DHT22;322;48.846;9.230;2022-09-09T09:57:51;21.00;99.90
680;DHT22;322;48.846;9.230;2022-09-09T10:00:21;21.50;99.90
680;DHT22;322;48.846;9.230;2022-09-09T10:02:49;22.00;99.80
680;DHT22;322;48.846;9.230;2022-09-09T10:05:19;22.30;99.20
680;DHT22;322;48.846;9.230;2022-09-09T10:07:57;22.60;97.40
680;DHT22;322;48.846;9.230;2022-09-09T10:10:33;23.00;97.30
680;DHT22;322;48.846;9.230;2022-09-09T10:13:06;23.40;96.80
680;DHT22;322;48.846;9.230;2022-09-09T10:15:45;23.70;95.70
680;DHT22;322;48.846;9.230;2022-09-09T10:18:30;23.90;95.80
680;DHT22;322;48.846;9.230;2022-09-09T10:21:06;23.70;94.80
680;DHT22;322;48.846;9.230;2022-09-09T10:23:52;23.70;95.20
680;DHT22;322;48.846;9.230;2022-09-09T10:26:32;23.50;95.90
680;DHT22;322;48.846;9.230;2022-09-09T10:29:15;23.90;95.90
680;DHT22;322;48.846;9.230;2022-09-09T10:31:54;24.40;95.60
680;DHT22;322;48.846;9.230;2022-09-09T10:34:44;24.90;95.10
680;DHT22;322;48.846;9.230;2022-09-09T10:37:19;25.20;93.70
680;DHT22;322;48.846;9.230;2022-09-09T10:39:50;24.70;93.80
680;DHT22;322;48.846;9.230;2022-09-09T10:42:26;24.40;93.90
680;DHT22;322;48.846;9.230;2022-09-09T10:45:05;24.50;94.30
680;DHT22;322;48.846;9.230;2022-09-09T10:47:50;24.40;93.60
680;DHT22;322;48.846;9.230;2022-09-09T10:50:50;24.40;93.90
680;DHT22;322;48.846;9.230;2022-09-09T10:53:26;24.40;94.70
680;DHT22;322;48.846;9.230;2022-09-09T10:56:00;24.50;95.60
680;DHT22;322;48.846;9.230;2022-09-09T10:58:35;24.40;96.30
680;DHT22;322;48.846;9.230;2022-09-09T11:01:11;24.20;96.10
680;DHT22;322;48.846;9.230;2022-09-09T11:03:41;24.10;95.30
680;DHT22;322;48.846;9.230;2022-09-09T11:06:13;24.00;95.80
680;DHT22;322;48.846;9.230;2022-09-09T11:08:41;23.90;97.10
680;DHT22;322;48.846;9.230;2022-09-09T11:11:13;23.80;97.30
680;DHT22;322;48.846;9.230;2022-09-09T11:13:46;23.60;98.40
680;DHT22;322;48.846;9.230;2022-09-09T11:16:23;23.80;98.70
680;DHT22;322;48.846;9.230;2022-09-09T11:18:57;23.70;97.80
680;DHT22;322;48.846;9.230;2022-09-09T11:21:28;23.20;96.50
680;DHT22;322;48.846;9.230;2022-09-09T11:23:59;22.60;97.80
680;DHT22;322;48.846;9.230;2022-09-09T11:26:31;21.20;99.90
680;DHT22;322;48.846;9.230;2022-09-09T11:29:28;19.60;99.90
680;DHT22;322;48.846;9.230;2022-09-09T11:32:10;18.00;99.90
680;DHT22;322;48.846;9.230;2022-09-09T11:34:47;17.20;99.90
680;DHT22;322;48.846;9.230;2022-09-09T11:37:39;16.80;99.90
680;DHT22;322;48.846;9.230;2022-09-09T11:40:19;16.60;99.90
680;DHT22;322;48.846;9.230;2022-09-09T11:42:49;16.60;99.90
680;DHT22;322;48.846;9.230;2022-09-09T11:45:28;16.80;99.90
680;DHT22;322;48.846;9.230;2022-09-09T11:47:56;17.10;99.90
680;DHT22;322;48.846;9.230;2022-09-09T11:50:34;17.30;99.90
680;DHT22;322;48.846;9.230;2022-09-09T11:53:20;17.60;99.90
680;DHT22;322;48.846;9.230;2022-09-09T11:55:48;18.00;99.90
680;DHT22;322;48.846;9.230;2022-09-09T11:58:26;18.10;99.90
680;DHT22;322;48.846;9.230;2022-09-09T12:00:58;18.20;99.90
680;DHT22;322;48.846;9.230;2022-09-09T12:03:41;18.50;99.90
680;DHT22;322;48.846;9.230;2022-09-09T12:06:14;18.80;99.90
680;DHT22;322;48.846;9.230;2022-09-09T12:08:44;18.90;99.90
680;DHT22;322;48.846;9.230;2022-09-09T12:11:12;18.90;99.90
680;DHT22;322;48.846;9.230;2022-09-09T12:13:53;19.10;99.90
680;DHT22;322;48.846;9.230;2022-09-09T12:16:28;19.70;99.90
680;DHT22;322;48.846;9.230;2022-09-09T12:19:06;20.40;99.90
680;DHT22;322;48.846;9.230;2022-09-09T12:21:40;21.10;99.90
680;DHT22;322;48.846;9.230;2022-09-09T12:24:10;21.80;99.90
680;DHT22;322;48.846;9.230;2022-09-09T12:26:41;22.90;99.90
680;DHT22;322;48.846;9.230;2022-09-09T12:29:18;23.10;99.90
680;DHT22;322;48.846;9.230;2022-09-09T12:31:54;23.70;99.90
680;DHT22;322;48.846;9.230;2022-09-09T12:34:30;24.50;98.70
680;DHT22;322;48.846;9.230;2022-09-09T12:37:04;25.10;96.40
680;DHT22;322;48.846;9.230;2022-09-09T12:39:35;26.30;96.30
680;DHT22;322;48.846;9.230;2022-09-09T12:42:03;27.50;92.20
680;DHT22;322;48.846;9.230;2022-09-09T12:44:30;28.10;92.10
680;DHT22;322;48.846;9.230;2022-09-09T12:47:00;28.00;90.00
680;DHT22;322;48.846;9.230;2022-09-09T12:49:30;27.40;89.90
680;DHT22;322;48.846;9.230;2022-09-09T12:52:01;25.80;90.50
680;DHT22;322;48.846;9.230;2022-09-09T12:54:28;24.10;92.40
680;DHT22;322;48.846;9.230;2022-09-09T12:56:55;23.40;93.20
680;DHT22;322;48.846;9.230;2022-09-09T12:59:24;23.00;93.90
680;DHT22;322;48.846;9.230;2022-09-09T13:01:58;22.80;95.10
680;DHT22;322;48.846;9.230;2022-09-09T13:04:25;22.50;95.30
680;DHT22;322;48.846;9.230;2022-09-09T13:06:52;22.40;94.80
680;DHT22;322;48.846;9.230;2022-09-09T13:09:20;22.60;96.00
680;DHT22;322;48.846;9.230;2022-09-09T13:11:49;22.90;95.40
680;DHT22;322;48.846;9.230;2022-09-09T13:14:19;24.40;93.90
680;DHT22;322;48.846;9.230;2022-09-09T13:16:56;26.10;91.70
680;DHT22;322;48.846;9.230;2022-09-09T13:19:23;26.40;89.70
680;DHT22;322;48.846;9.230;2022-09-09T13:21:53;26.50;90.10
680;DHT22;322;48.846;9.230;2022-09-09T13:24:28;27.20;88.20
680;DHT22;322;48.846;9.230;2022-09-09T13:26:56;26.60;86.70
680;DHT22;322;48.846;9.230;2022-09-09T13:29:23;26.10;90.20
680;DHT22;322;48.846;9.230;2022-09-09T13:31:50;26.40;85.80
680;DHT22;322;48.846;9.230;2022-09-09T13:34:30;26.20;90.40
680;DHT22;322;48.846;9.230;2022-09-09T13:37:00;26.70;86.40
680;DHT22;322;48.846;9.230;2022-09-09T13:39:30;26.70;85.10
680;DHT22;322;48.846;9.230;2022-09-09T13:41:56;27.60;85.40
680;DHT22;322;48.846;9.230;2022-09-09T13:44:25;27.30;82.40
680;DHT22;322;48.846;9.230;2022-09-09T13:47:00;26.40;86.80
680;DHT22;322;48.846;9.230;2022-09-09T13:49:29;27.00;88.00
680;DHT22;322;48.846;9.230;2022-09-09T13:52:14;27.70;84.50
680;DHT22;322;48.846;9.230;2022-09-09T13:54:47;28.80;84.70
680;DHT22;322;48.846;9.230;2022-09-09T13:57:16;30.60;78.70
680;DHT22;322;48.846;9.230;2022-09-09T13:59:44;30.00;74.70
680;DHT22;322;48.846;9.230;2022-09-09T14:02:11;28.50;77.30
680;DHT22;322;48.846;9.230;2022-09-09T14:04:38;27.40;81.50
680;DHT22;322;48.846;9.230;2022-09-09T14:07:10;26.40;85.40
680;DHT22;322;48.846;9.230;2022-09-09T14:09:37;26.50;86.40
680;DHT22;322;48.846;9.230;2022-09-09T14:12:08;27.60;81.50
680;DHT22;322;48.846;9.230;2022-09-09T14:14:35;28.20;78.60
680;DHT22;322;48.846;9.230;2022-09-09T14:17:01;28.00;78.80
680;DHT22;322;48.846;9.230;2022-09-09T14:19:28;29.10;75.70
680;DHT22;322;48.846;9.230;2022-09-09T14:21:56;30.80;76.20
680;DHT22;322;48.846;9.230;2022-09-09T14:24:23;31.60;67.90
680;DHT22;322;48.846;9.230;2022-09-09T14:26:50;32.10;65.60
680;DHT22;322;48.846;9.230;2022-09-09T14:29:18;31.10;65.30
680;DHT22;322;48.846;9.230;2022-09-09T14:31:45;30.70;67.70
680;DHT22;322;48.846;9.230;2022-09-09T14:34:12;31.10;63.80
680;DHT22;322;48.846;9.230;2022-09-09T14:36:40;29.60;64.50
680;DHT22;322;48.846;9.230;2022-09-09T14:39:07;28.00;69.60
680;DHT22;322;48.846;9.230;2022-09-09T14:41:34;27.90;70.30
680;DHT22;322;48.846;9.230;2022-09-09T14:44:01;27.90;70.20
680;DHT22;322;48.846;9.230;2022-09-09T14:46:29;28.20;69.10
680;DHT22;322;48.846;9.230;2022-09-09T14:48:56;27.60;68.90
680;DHT22;322;48.846;9.230;2022-09-09T14:51:24;27.10;69.90
680;DHT22;322;48.846;9.230;2022-09-09T14:53:53;25.90;73.90
680;DHT22;322;48.846;9.230;2022-09-09T14:56:23;25.70;75.60
680;DHT22;322;48.846;9.230;2022-09-09T14:58:52;26.40;74.40
680;DHT22;322;48.846;9.230;2022-09-09T15:01:20;27.20;71.30
680;DHT22;322;48.846;9.230;2022-09-09T15:03:52;26.10;72.30
680;DHT22;322;48.846;9.230;2022-09-09T15:06:20;25.30;75.30
680;DHT22;322;48.846;9.230;2022-09-09T15:08:50;24.80;76.30
680;DHT22;322;48.846;9.230;2022-09-09T15:11:17;24.50;78.00
680;DHT22;322;48.846;9.230;2022-09-09T15:13:46;25.50;76.60
680;DHT22;322;48.846;9.230;2022-09-09T15:16:15;25.70;74.60
680;DHT22;322;48.846;9.230;2022-09-09T15:18:43;26.00;74.60
680;DHT22;322;48.846;9.230;2022-09-09T15:21:13;25.60;77.50
680;DHT22;322;48.846;9.230;2022-09-09T15:23:41;24.90;77.00
680;DHT22;322;48.846;9.230;2022-09-09T15:26:08;23.90;77.60
680;DHT22;322;48.846;9.230;2022-09-09T15:28:36;23.20;79.60
680;DHT22;322;48.846;9.230;2022-09-09T15:31:06;22.80;81.90
680;DHT22;322;48.846;9.230;2022-09-09T15:33:33;22.50;82.40
680;DHT22;322;48.846;9.230;2022-09-09T15:36:14;22.40;82.90
680;DHT22;322;48.846;9.230;2022-09-09T15:38:41;22.30;83.90
680;DHT22;322;48.846;9.230;2022-09-09T15:41:09;22.20;83.90
680;DHT22;322;48.846;9.230;2022-09-09T15:43:36;22.10;85.10
680;DHT22;322;48.846;9.230;2022-09-09T15:46:21;22.10;85.00
680;DHT22;322;48.846;9.230;2022-09-09T15:48:49;22.10;87.00
680;DHT22;322;48.846;9.230;2022-09-09T15:51:18;22.10;86.30
680;DHT22;322;48.846;9.230;2022-09-09T15:53:45;22.00;87.50
680;DHT22;322;48.846;9.230;2022-09-09T15:56:12;21.80;87.10
680;DHT22;322;48.846;9.230;2022-09-09T15:58:38;21.70;88.10
680;DHT22;322;48.846;9.230;2022-09-09T16:01:07;21.50;88.50
680;DHT22;322;48.846;9.230;2022-09-09T16:03:34;21.30;89.50
680;DHT22;322;48.846;9.230;2022-09-09T16:06:01;21.20;90.20
680;DHT22;322;48.846;9.230;2022-09-09T16:08:32;21.20;90.60
680;DHT22;322;48.846;9.230;2022-09-09T16:11:05;21.20;90.50
680;DHT22;322;48.846;9.230;2022-09-09T16:13:33;21.20;90.80
680;DHT22;322;48.846;9.230;2022-09-09T16:16:01;21.20;91.10
680;DHT22;322;48.846;9.230;2022-09-09T16:18:33;21.10;91.00
680;DHT22;322;48.846;9.230;2022-09-09T16:21:01;21.10;91.50
680;DHT22;322;48.846;9.230;2022-09-09T16:23:28;21.10;91.50
680;DHT22;322;48.846;9.230;2022-09-09T16:25:57;21.10;91.80
680;DHT22;322;48.846;9.230;2022-09-09T16:28:23;21.10;92.00
680;DHT22;322;48.846;9.230;2022-09-09T16:30:50;21.10;92.10
680;DHT22;322;48.846;9.230;2022-09-09T16:33:18;20.60;88.70
680;DHT22;322;48.846;9.230;2022-09-09T16:35:45;20.00;90.30
680;DHT22;322;48.846;9.230;2022-09-09T16:38:12;19.70;91.10
680;DHT22;322;48.846;9.230;2022-09-09T16:40:39;19.30;92.10
680;DHT22;322;48.846;9.230;2022-09-09T16:43:08;19.10;93.90
680;DHT22;322;48.846;9.230;2022-09-09T16:45:41;18.80;95.00
680;DHT22;322;48.846;9.230;2022-09-09T16:48:08;18.60;95.90
680;DHT22;322;48.846;9.230;2022-09-09T16:50:35;18.50;96.80
680;DHT22;322;48.846;9.230;2022-09-09T16:53:02;18.40;97.40
680;DHT22;322;48.846;9.230;2022-09-09T16:55:31;18.30;97.70
680;DHT22;322;48.846;9.230;2022-09-09T16:57:59;18.30;98.80
680;DHT22;322;48.846;9.230;2022-09-09T17:00:27;18.20;99.90